Time;durP1;ratioP1;P1;durP2;ratioP2;P2;SDS_P1;SDS_P2;PMS_P1;PMS_P2;Temp;Humidity;BMP_temperature;BMP_pressure;BME280_temperature;BME280_humidity;BME280_pressure;Samples;Min_cycle;Max_cycle;Signal;HPM_P1;HPM_P2
2022/07/03 00:00:37;;;;;;;7.95;1.05;;;;;;;12.54;80.66;100693.69;5066073;28;20055;-81
2022/07/03 00:03:03;;;;;;;6.78;1.27;;;;;;;12.56;80.26;100690.88;5037174;28;20087;-81
2022/07/03 00:05:29;;;;;;;5.72;1.10;;;;;;;12.52;80.46;100685.88;5048441;28;20029;-81
2022/07/03 00:07:55;;;;;;;6.90;1.20;;;;;;;12.52;80.51;100693.81;5051952;28;20174;-81
2022/07/03 00:10:21;;;;;;;6.57;1.50;;;;;;;12.51;80.09;100691.31;5051178;28;20063;-81
2022/07/03 00:12:47;;;;;;;5.47;1.13;;;;;;;12.52;80.29;100700.94;5067902;28;20033;-81
2022/07/03 00:15:12;;;;;;;6.30;1.25;;;;;;;12.46;80.25;100699.75;5029382;28;20383;-81
2022/07/03 00:17:38;;;;;;;6.63;1.17;;;;;;;12.45;80.62;100703.38;5053220;28;20025;-81
2022/07/03 00:20:05;;;;;;;10.63;1.73;;;;;;;12.46;80.61;100706.84;5049770;28;20044;-81
2022/07/03 00:22:36;;;;;;;6.45;1.23;;;;;;;12.46;80.53;100710.34;5067166;28;20029;-81
2022/07/03 00:25:04;;;;;;;7.75;1.13;;;;;;;12.48;80.45;100719.00;5045903;28;20094;-80
2022/07/03 00:27:35;;;;;;;4.60;1.10;;;;;;;12.51;80.14;100718.69;5047950;28;20052;-74
2022/07/03 00:30:03;;;;;;;7.20;1.42;;;;;;;12.52;80.14;100727.44;5050302;28;20041;-75
2022/07/03 00:32:29;;;;;;;7.45;1.15;;;;;;;12.51;80.17;100725.78;5046249;28;20032;-74
2022/07/03 00:34:56;;;;;;;4.95;1.38;;;;;;;12.53;80.08;100734.44;5064649;28;20454;-75
2022/07/03 00:37:24;;;;;;;13.95;1.23;;;;;;;12.48;80.19;100734.91;5052982;28;20040;-81
2022/07/03 00:39:50;;;;;;;5.70;1.10;;;;;;;12.43;80.24;100736.31;5051910;28;20512;-80
2022/07/03 00:42:17;;;;;;;8.70;1.30;;;;;;;12.36;80.53;100744.03;5062369;28;20052;-81
2022/07/03 00:44:51;;;;;;;4.60;1.05;;;;;;;12.33;80.68;100731.91;5067190;28;20096;-81
2022/07/03 00:47:21;;;;;;;5.43;1.30;;;;;;;12.34;80.78;100735.41;5073002;28;20032;-81
2022/07/03 00:49:49;;;;;;;7.95;1.23;;;;;;;12.28;80.53;100737.66;5026736;28;20037;-81
2022/07/03 00:52:17;;;;;;;13.73;1.27;;;;;;;12.21;80.72;100747.19;5071016;28;20028;-81
2022/07/03 00:54:52;;;;;;;5.70;1.30;;;;;;;12.13;80.54;100747.94;4989117;28;20032;-81
2022/07/03 00:57:19;;;;;;;5.97;1.27;;;;;;;12.07;81.15;100750.28;5056669;28;20040;-82
2022/07/03 00:59:45;;;;;;;8.88;1.83;;;;;;;12.06;81.24;100757.41;5070877;28;20067;-81
2022/07/03 01:02:26;;;;;;;4.22;1.00;;;;;;;12.06;80.99;100759.19;5056324;28;20036;-81
2022/07/03 01:05:18;;;;;;;4.32;1.42;;;;;;;12.06;80.80;100756.56;5054567;28;20035;-81
2022/07/03 01:07:43;;;;;;;6.13;1.52;;;;;;;12.08;80.72;100760.78;5071812;28;20043;-81
2022/07/03 01:10:18;;;;;;;6.15;1.45;;;;;;;12.13;80.73;100768.28;5065731;28;20032;-81
2022/07/03 01:13:00;;;;;;;9.63;1.55;;;;;;;12.18;80.57;100765.19;5055012;28;20204;-81
2022/07/03 01:15:39;;;;;;;11.60;1.23;;;;;;;12.24;80.79;100775.19;5066317;28;20067;-81
2022/07/03 01:18:18;;;;;;;8.48;1.95;;;;;;;12.25;80.91;100775.06;5064513;28;20041;-81
2022/07/03 01:20:51;;;;;;;6.82;1.20;;;;;;;12.30;80.70;100779.06;5071511;28;20103;-81
2022/07/03 01:23:48;;;;;;;6.30;1.30;;;;;;;12.28;80.74;100779.22;5055049;28;20036;-81
2022/07/03 01:26:15;;;;;;;10.55;1.77;;;;;;;12.25;81.49;100787.47;5072341;28;20378;-81
2022/07/03 01:28:45;;;;;;;6.38;1.17;;;;;;;12.24;81.65;100780.50;5071606;28;20470;-80
2022/07/03 01:31:17;;;;;;;5.43;1.40;;;;;;;12.24;81.78;100784.00;5054110;28;20453;-81
2022/07/03 01:33:46;;;;;;;8.05;1.30;;;;;;;12.24;82.08;100781.34;5032691;28;20400;-81
2022/07/03 01:36:15;;;;;;;6.15;1.10;;;;;;;12.22;82.38;100779.81;5048093;28;20037;-81
2022/07/03 01:38:42;;;;;;;11.00;2.53;;;;;;;12.18;82.25;100787.22;5068198;28;20366;-80
2022/07/03 01:41:11;;;;;;;8.18;1.92;;;;;;;12.16;81.95;100783.88;5072124;28;20358;-81
2022/07/03 01:43:44;;;;;;;5.63;1.48;;;;;;;12.12;82.10;100778.03;5069347;28;20048;-80
2022/07/03 01:46:12;;;;;;;5.10;1.00;;;;;;;12.07;81.94;100784.72;5052691;28;20499;-81
2022/07/03 01:48:42;;;;;;;5.68;1.00;;;;;;;12.00;81.93;100782.66;5071768;28;20032;-81
2022/07/03 01:51:12;;;;;;;4.03;1.20;;;;;;;11.99;82.13;100780.97;5071855;28;20035;-81
2022/07/03 01:53:46;;;;;;;5.55;1.10;;;;;;;12.02;81.83;100786.00;5068698;28;20024;-81
2022/07/03 01:56:12;;;;;;;5.10;0.80;;;;;;;12.02;82.22;100783.34;5038035;28;20034;-81
2022/07/03 01:58:38;;;;;;;3.38;1.00;;;;;;;12.02;82.03;100777.22;5071485;28;20032;-80
2022/07/03 02:01:25;;;;;;;6.38;1.00;;;;;;;12.07;81.61;100782.09;5071892;28;20020;-81
2022/07/03 02:04:09;;;;;;;6.38;1.00;;;;;;;12.09;81.48;100777.53;5070828;28;20067;-81
2022/07/03 02:06:51;;;;;;;3.85;1.00;;;;;;;12.09;81.21;100777.53;5072398;28;20044;-80
2022/07/03 02:09:21;;;;;;;3.42;1.10;;;;;;;12.17;81.07;100782.91;5032857;28;20032;-80
2022/07/03 02:11:47;;;;;;;4.78;1.23;;;;;;;12.26;80.86;100778.56;5066332;28;20872;-80
2022/07/03 02:14:16;;;;;;;6.95;1.10;;;;;;;12.37;80.32;100780.16;5054450;28;20494;-80
2022/07/03 02:17:15;;;;;;;4.40;0.90;;;;;;;12.46;80.05;100783.72;5072108;28;20098;-80
2022/07/03 02:19:52;;;;;;;5.57;1.00;;;;;;;12.55;79.67;100789.97;5071351;28;20081;-80
2022/07/03 02:22:20;;;;;;;6.10;1.05;;;;;;;12.60;79.52;100787.69;5066012;28;20511;-81
2022/07/03 02:24:47;;;;;;;6.93;1.00;;;;;;;12.66;79.35;100792.41;5046712;28;20036;-80
2022/07/03 02:27:21;;;;;;;3.40;0.77;;;;;;;12.70;79.40;100793.78;5055359;28;20029;-81
2022/07/03 02:29:55;;;;;;;5.13;1.00;;;;;;;12.75;78.86;100791.53;5051902;28;20094;-80
2022/07/03 02:32:22;;;;;;;6.30;1.67;;;;;;;12.70;78.72;100788.47;5070638;28;20065;-80
2022/07/03 02:34:56;;;;;;;4.10;1.15;;;;;;;12.67;79.21;100793.25;5059726;28;20056;-81
2022/07/03 02:37:24;;;;;;;5.72;1.30;;;;;;;12.63;78.97;100788.22;5070013;28;20040;-80
2022/07/03 02:40:02;;;;;;;9.68;1.77;;;;;;;12.63;79.10;100784.72;5038106;28;20174;-81
2022/07/03 02:42:37;;;;;;;8.07;1.50;;;;;;;12.61;79.61;100792.03;5064533;28;20056;-81
2022/07/03 02:45:05;;;;;;;5.47;1.10;;;;;;;12.60;79.68;100788.53;5038563;28;20040;-81
2022/07/03 02:47:51;;;;;;;7.70;1.67;;;;;;;12.55;79.89;100785.47;5032182;28;20029;-81
2022/07/03 02:50:21;;;;;;;4.88;1.33;;;;;;;12.51;79.80;100784.97;5071587;28;20032;-81
2022/07/03 02:53:09;;;;;;;5.20;1.38;;;;;;;12.49;80.22;100789.56;5052915;28;20378;-80
2022/07/03 02:55:35;;;;;;;4.53;1.27;;;;;;;12.49;80.38;100789.56;5057298;28;20529;-80
2022/07/03 02:58:22;;;;;;;9.73;1.27;;;;;;;12.46;80.28;100791.69;5059814;28;20036;-81
2022/07/03 03:01:29;;;;;;;4.95;1.30;;;;;;;12.44;80.75;100791.84;5069927;28;20389;-80
2022/07/03 03:04:15;;;;;;;;;;;;;;;12.35;81.26;100793.56;5058328;28;20040;-80
2022/07/03 03:06:46;;;;;;;11.18;1.75;;;;;;;12.40;81.03;100798.41;4984457;28;19919;-80
2022/07/03 03:09:20;;;;;;;5.72;1.33;;;;;;;12.42;80.86;100801.78;5078706;28;20029;-80
2022/07/03 03:11:47;;;;;;;5.85;1.30;;;;;;;12.43;81.27;100791.97;5051650;28;20071;-81
2022/07/03 03:14:20;;;;;;;6.72;1.70;;;;;;;12.42;81.30;100804.41;5061152;28;20028;-80
2022/07/03 03:16:48;;;;;;;6.90;1.38;;;;;;;12.39;81.46;100791.47;5078072;28;20028;-81
2022/07/03 03:19:14;;;;;;;9.65;1.48;;;;;;;12.41;81.37;100797.44;5078763;28;20060;-80
2022/07/03 03:22:03;;;;;;;6.63;1.40;;;;;;;12.44;81.25;100797.13;5060671;28;20097;-81
2022/07/03 03:24:31;;;;;;;8.60;1.55;;;;;;;12.44;81.65;100797.13;5079395;28;20083;-81
2022/07/03 03:26:58;;;;;;;6.60;1.40;;;;;;;12.48;81.62;100806.47;5060271;28;20059;-81
2022/07/03 03:29:24;;;;;;;16.75;2.92;;;;;;;12.45;81.68;100801.47;5078213;28;20032;-80
2022/07/03 03:31:50;;;;;;;9.05;1.45;;;;;;;12.45;81.60;100806.78;5059986;28;20043;-80
2022/07/03 03:34:17;;;;;;;11.02;2.00;;;;;;;12.47;81.72;100803.97;5077519;28;20024;-81
2022/07/03 03:36:43;;;;;;;8.30;1.45;;;;;;;12.46;81.55;100799.63;5058315;28;20029;-81
2022/07/03 03:39:09;;;;;;;3.55;1.17;;;;;;;12.42;82.00;100809.72;5078175;28;20112;-81
2022/07/03 03:41:34;;;;;;;5.53;1.25;;;;;;;12.36;82.32;100800.53;5060933;28;20128;-80
2022/07/03 03:44:00;;;;;;;4.75;1.33;;;;;;;12.30;82.32;100803.75;5078086;28;20081;-80
2022/07/03 03:46:26;;;;;;;4.57;1.15;;;;;;;12.25;82.48;100808.66;5079117;28;20393;-81
2022/07/03 03:48:52;;;;;;;14.68;2.15;;;;;;;12.21;82.75;100804.66;5060911;28;20059;-81
2022/07/03 03:51:18;;;;;;;5.47;1.38;;;;;;;12.16;83.13;100807.75;5079016;28;20068;-81
2022/07/03 03:53:44;;;;;;;7.15;1.08;;;;;;;12.15;82.95;100804.25;5059558;28;20050;-81
2022/07/03 03:56:14;;;;;;;5.47;1.30;;;;;;;12.15;83.29;100801.59;5060245;28;20392;-81
2022/07/03 03:58:42;;;;;;;6.03;1.20;;;;;;;12.09;83.18;100806.66;5077585;28;20085;-81
2022/07/03 04:01:10;;;;;;;6.30;1.50;;;;;;;12.07;82.90;100808.59;5049124;28;20028;-75
2022/07/03 04:03:37;;;;;;;7.43;1.60;;;;;;;12.06;83.21;100804.25;5059338;28;20020;-75
2022/07/03 04:06:03;;;;;;;5.10;0.98;;;;;;;12.07;82.91;100811.22;5058661;28;20074;-81
2022/07/03 04:08:31;;;;;;;8.65;1.08;;;;;;;12.09;82.77;100807.47;5039645;28;20037;-81
2022/07/03 04:10:58;;;;;;;6.57;1.13;;;;;;;11.98;82.82;100804.97;5061320;28;20045;-81
2022/07/03 04:13:24;;;;;;;4.80;1.15;;;;;;;11.96;82.67;100810.41;5067539;28;20071;-81
2022/07/03 04:15:51;;;;;;;3.60;0.73;;;;;;;11.99;82.45;100812.78;5074398;28;20035;-80
2022/07/03 04:18:17;;;;;;;7.82;1.40;;;;;;;11.98;82.18;100819.06;5074115;28;20081;-81
2022/07/03 04:20:43;;;;;;;2.47;0.60;;;;;;;12.03;82.08;100826.56;5073824;28;20377;-81
2022/07/03 04:23:09;;;;;;;2.90;0.60;;;;;;;12.03;81.50;100819.47;5055433;28;20028;-81
2022/07/03 04:25:35;;;;;;;0.80;0.43;;;;;;;12.09;81.50;100822.56;5036456;28;20036;-80
2022/07/03 04:28:01;;;;;;;3.90;0.63;;;;;;;12.15;80.94;100827.28;5051692;28;20036;-81
2022/07/03 04:30:27;;;;;;;2.22;0.50;;;;;;;12.18;80.84;100826.13;5072916;28;20404;-81
2022/07/03 04:32:53;;;;;;;2.53;0.70;;;;;;;12.15;80.72;100830.75;5071422;28;20447;-81
2022/07/03 04:35:19;;;;;;;2.25;0.68;;;;;;;12.19;80.53;100833.09;5056097;28;20032;-81
2022/07/03 04:37:45;;;;;;;5.50;0.63;;;;;;;12.21;80.17;100826.69;5055702;28;20067;-81
2022/07/03 04:40:13;;;;;;;5.10;0.73;;;;;;;12.23;80.14;100829.19;5072564;28;20029;-81
2022/07/03 04:42:39;;;;;;;3.45;0.70;;;;;;;12.25;80.35;100833.34;5055440;28;20040;-80
2022/07/03 04:45:07;;;;;;;1.80;0.57;;;;;;;12.24;80.08;100831.69;5070306;28;20032;-80
2022/07/03 04:47:32;;;;;;;2.45;0.60;;;;;;;12.25;79.81;100835.16;5073631;28;20044;-80
2022/07/03 04:49:58;;;;;;;1.25;0.50;;;;;;;12.26;79.86;100832.38;5055970;28;20150;-81
2022/07/03 04:52:24;;;;;;;4.13;0.60;;;;;;;12.27;79.87;100831.41;5056136;28;20449;-81
2022/07/03 04:54:50;;;;;;;3.33;0.60;;;;;;;12.29;80.03;100836.56;5055350;28;20094;-81
2022/07/03 04:57:16;;;;;;;4.82;0.90;;;;;;;12.26;79.98;100835.03;5060441;28;20039;-81
2022/07/03 04:59:42;;;;;;;2.75;1.00;;;;;;;12.24;80.25;100833.50;5055617;28;20036;-80
2022/07/03 05:02:07;;;;;;;6.57;0.88;;;;;;;12.19;80.39;100828.66;5054893;28;20369;-81
2022/07/03 05:04:33;;;;;;;4.70;0.88;;;;;;;12.20;80.49;100834.78;5072172;28;20126;-80
2022/07/03 05:06:59;;;;;;;3.97;1.20;;;;;;;12.16;80.60;100834.25;5073096;28;20033;-80
2022/07/03 05:09:25;;;;;;;8.43;1.05;;;;;;;12.14;81.02;100844.97;5072467;28;20473;-81
2022/07/03 05:11:51;;;;;;;6.57;0.73;;;;;;;12.11;80.73;100853.22;5046371;28;20036;-81
2022/07/03 05:14:17;;;;;;;3.00;0.70;;;;;;;12.06;81.19;100844.81;5072127;28;20076;-81
2022/07/03 05:16:43;;;;;;;3.60;0.75;;;;;;;12.01;81.12;100842.63;5068588;28;20492;-81
2022/07/03 05:19:09;;;;;;;1.35;0.70;;;;;;;12.00;81.60;100843.59;5055343;28;20032;-81
2022/07/03 05:21:35;;;;;;;2.25;0.75;;;;;;;12.02;81.40;100844.28;5054568;28;20397;-81
2022/07/03 05:24:01;;;;;;;3.67;0.80;;;;;;;12.06;81.42;100850.13;5054923;28;20055;-81
2022/07/03 05:26:26;;;;;;;4.70;0.88;;;;;;;12.10;81.63;100853.38;5061952;28;20126;-81
2022/07/03 05:28:53;;;;;;;4.68;1.00;;;;;;;12.11;81.26;100858.53;5001344;28;20411;-80
2022/07/03 05:31:18;;;;;;;4.25;0.80;;;;;;;12.12;81.10;100854.06;5071638;28;20032;-81
2022/07/03 05:33:44;;;;;;;5.65;0.98;;;;;;;12.12;81.30;100854.88;5056356;28;20523;-81
2022/07/03 05:36:10;;;;;;;3.22;0.70;;;;;;;12.15;81.44;100859.88;5058989;28;20082;-81
2022/07/03 05:41:20;;;;;;;5.10;0.88;;;;;;;12.26;81.49;100861.53;5050308;28;20090;-74
2022/07/03 05:43:49;;;;;;;3.70;0.70;;;;;;;12.32;81.38;100859.28;5051520;28;21069;-75
2022/07/03 05:46:16;;;;;;;6.75;1.00;;;;;;;12.36;81.29;100860.69;5063375;28;20033;-81
2022/07/03 05:48:44;;;;;;;4.50;0.68;;;;;;;12.30;81.43;100864.72;5031242;28;20098;-80
2022/07/03 05:51:10;;;;;;;2.88;0.70;;;;;;;12.26;81.25;100872.13;5054234;28;20128;-81
2022/07/03 05:53:36;;;;;;;5.60;0.88;;;;;;;12.24;81.59;100873.25;5054115;28;20036;-81
2022/07/03 05:56:05;;;;;;;3.72;0.40;;;;;;;12.24;81.44;100873.25;5054087;28;20044;-81
2022/07/03 05:58:31;;;;;;;2.25;0.50;;;;;;;12.21;81.25;100878.84;5041772;28;20044;-81
2022/07/03 06:00:57;;;;;;;6.10;0.70;;;;;;;12.22;81.18;100880.50;5043396;28;20037;-81
2022/07/03 06:03:22;;;;;;;5.00;0.38;;;;;;;12.24;81.10;100882.06;5070950;28;20444;-81
2022/07/03 06:05:48;;;;;;;2.95;0.60;;;;;;;12.23;80.66;100888.31;5071072;28;20103;-81
2022/07/03 06:08:14;;;;;;;2.58;0.35;;;;;;;12.24;81.16;100884.72;5055090;28;20392;-82
2022/07/03 06:10:41;;;;;;;2.05;0.50;;;;;;;12.28;81.08;100880.78;5055296;28;20033;-81
2022/07/03 06:13:06;;;;;;;2.40;0.35;;;;;;;12.26;80.99;100893.31;5051929;28;20405;-81
2022/07/03 06:15:32;;;;;;;3.10;0.50;;;;;;;12.27;81.02;100894.19;5058892;28;20036;-81
2022/07/03 06:17:58;;;;;;;4.00;0.40;;;;;;;12.25;80.77;100896.97;5071160;28;20494;-75
2022/07/03 06:20:24;;;;;;;4.97;0.50;;;;;;;12.28;80.82;100893.19;5071566;28;20099;-75
2022/07/03 06:22:50;;;;;;;4.10;1.00;;;;;;;12.31;80.97;100908.78;5072353;28;20043;-81
2022/07/03 06:25:16;;;;;;;3.30;0.68;;;;;;;12.30;80.54;100901.00;5037250;28;20028;-81
2022/07/03 06:27:42;;;;;;;4.72;0.40;;;;;;;12.32;80.77;100910.50;5054236;28;20045;-81
2022/07/03 06:30:08;;;;;;;3.03;0.63;;;;;;;12.41;80.46;100908.78;5036809;28;20043;-82
2022/07/03 06:32:34;;;;;;;4.80;0.60;;;;;;;12.43;80.65;100908.63;5068479;28;20126;-81
2022/07/03 06:35:00;;;;;;;2.40;0.50;;;;;;;12.44;80.80;100905.81;5069500;28;20475;-81
2022/07/03 06:37:26;;;;;;;5.28;1.05;;;;;;;12.53;80.86;100912.91;5051123;28;20098;-81
2022/07/03 06:39:52;;;;;;;3.78;0.68;;;;;;;12.59;80.08;100915.97;5049101;28;20033;-81
2022/07/03 06:42:18;;;;;;;1.90;0.63;;;;;;;12.67;80.41;100923.19;5051906;28;20047;-81
2022/07/03 06:44:46;;;;;;;3.42;0.50;;;;;;;12.72;79.96;100919.13;5050235;28;20103;-82
2022/07/03 06:47:12;;;;;;;3.85;1.15;;;;;;;12.82;80.26;100934.16;5069312;28;20060;-82
2022/07/03 06:49:43;;;;;;;3.80;0.57;;;;;;;12.86;79.40;100932.88;5067113;28;20419;-81
2022/07/03 06:52:09;;;;;;;4.03;0.65;;;;;;;12.94;79.71;100935.63;5071585;28;20032;-82
2022/07/03 06:54:39;;;;;;;2.13;0.50;;;;;;;12.92;79.18;100936.75;5070407;28;20028;-81
2022/07/03 06:57:05;;;;;;;1.77;0.50;;;;;;;12.90;79.19;100943.03;5054011;28;20062;-81
2022/07/03 06:59:31;;;;;;;1.55;0.38;;;;;;;12.89;79.19;100943.19;5071146;28;20031;-81
2022/07/03 07:01:57;;;;;;;3.33;0.70;;;;;;;12.94;79.26;100948.91;5071334;28;20029;-81
2022/07/03 07:04:22;;;;;;;2.65;0.40;;;;;;;12.96;79.10;100949.59;5069581;28;20040;-81
2022/07/03 07:06:48;;;;;;;1.23;0.40;;;;;;;12.98;79.37;100950.25;5053720;28;20486;-76
2022/07/03 07:09:14;;;;;;;3.42;0.50;;;;;;;12.91;79.18;100951.84;5070655;28;20126;-75
2022/07/03 07:11:40;;;;;;;0.88;0.30;;;;;;;12.84;79.56;100959.56;5058798;28;20119;-81
2022/07/03 07:14:06;;;;;;;3.65;0.60;;;;;;;12.78;79.76;100963.63;5053607;28;20032;-82
2022/07/03 07:16:31;;;;;;;3.85;0.50;;;;;;;12.79;79.92;100961.81;5071163;28;20028;-81
2022/07/03 07:18:57;;;;;;;2.60;0.85;;;;;;;12.83;79.73;100959.69;5036996;28;20558;-81
2022/07/03 07:21:23;;;;;;;3.33;0.60;;;;;;;12.86;79.78;100962.06;5068364;28;20058;-81
2022/07/03 07:23:49;;;;;;;3.20;0.63;;;;;;;12.90;79.60;100958.13;5065162;28;20477;-81
2022/07/03 07:26:14;;;;;;;2.10;0.50;;;;;;;12.92;79.37;100964.13;5065157;28;20194;-81
2022/07/03 07:28:40;;;;;;;3.17;0.68;;;;;;;12.94;79.51;100967.47;5067212;28;20033;-79
2022/07/03 07:31:06;;;;;;;2.60;0.40;;;;;;;12.88;79.37;100965.41;5068505;28;20043;-76
2022/07/03 07:33:32;;;;;;;3.30;0.93;;;;;;;12.85;79.31;100963.88;5053483;28;20056;-76
2022/07/03 07:35:57;;;;;;;6.28;0.60;;;;;;;12.89;79.10;100962.59;5053021;28;20388;-76
2022/07/03 07:38:26;;;;;;;5.93;0.63;;;;;;;12.99;79.02;100959.06;5052949;28;20032;-81
2022/07/03 07:40:52;;;;;;;3.95;0.65;;;;;;;13.14;78.75;100962.88;5070642;28;20388;-82
2022/07/03 07:43:18;;;;;;;5.07;0.52;;;;;;;13.47;78.13;100961.59;5053702;28;20041;-82
2022/07/03 07:45:44;;;;;;;8.20;0.60;;;;;;;13.61;77.61;100966.41;5036558;28;20048;-81
2022/07/03 07:48:10;;;;;;;1.63;0.52;;;;;;;13.81;77.08;100971.53;5049409;28;20413;-81
2022/07/03 07:50:36;;;;;;;3.90;0.55;;;;;;;13.80;75.53;100966.38;5053194;28;20043;-81
2022/07/03 07:53:02;;;;;;;2.47;0.47;;;;;;;13.61;75.21;100968.22;5054717;28;20032;-82
2022/07/03 07:55:27;;;;;;;3.67;0.60;;;;;;;13.55;75.74;100961.69;5068438;28;20021;-82
2022/07/03 07:57:54;;;;;;;7.10;0.80;;;;;;;13.50;75.25;100974.56;5052825;28;20112;-82
2022/07/03 08:00:21;;;;;;;2.20;0.40;;;;;;;13.55;75.25;100982.94;5070152;28;20087;-81
2022/07/03 08:05:37;;;;;;;6.28;1.05;;;;;;;13.58;74.81;100980.00;5038870;28;20029;-75
2022/07/03 08:08:14;;;;;;;3.03;0.30;;;;;;;13.63;74.54;100979.53;5054012;28;20536;-81
2022/07/03 08:10:47;;;;;;;1.75;0.35;;;;;;;13.74;74.48;100989.91;5046646;28;20048;-81
2022/07/03 08:13:15;;;;;;;4.68;0.32;;;;;;;13.64;73.84;100983.84;5050226;28;20045;-81
2022/07/03 08:15:42;;;;;;;6.43;0.65;;;;;;;13.58;74.10;100989.75;5044311;28;20435;-81
2022/07/03 08:18:09;;;;;;;6.90;0.43;;;;;;;13.55;74.00;101000.69;5053548;28;20051;-76
2022/07/03 08:20:36;;;;;;;1.55;0.30;;;;;;;13.47;73.88;100999.56;5054310;28;20036;-76
2022/07/03 08:23:02;;;;;;;5.35;0.40;;;;;;;13.40;74.32;100998.50;5052724;28;20129;-81
2022/07/03 08:25:29;;;;;;;2.90;0.32;;;;;;;13.38;74.42;101003.97;5054254;28;20024;-82
2022/07/03 08:27:56;;;;;;;2.20;0.80;;;;;;;13.36;74.61;100997.16;5047264;28;20490;-81
2022/07/03 08:30:22;;;;;;;1.98;0.40;;;;;;;13.36;74.82;101003.28;5042637;28;20040;-82
2022/07/03 08:32:50;;;;;;;3.33;0.45;;;;;;;13.38;75.07;100997.81;5042471;28;20108;-81
2022/07/03 08:35:17;;;;;;;2.30;0.50;;;;;;;13.36;75.06;100997.16;5046363;28;20041;-82
2022/07/03 08:37:43;;;;;;;1.30;0.30;;;;;;;13.40;75.00;100993.19;5053238;28;20029;-82
2022/07/03 08:40:11;;;;;;;3.38;0.50;;;;;;;13.48;75.00;101000.41;5052640;28;20545;-81
2022/07/03 08:42:41;;;;;;;2.40;0.43;;;;;;;13.55;74.76;100996.22;5053791;28;20041;-82
2022/07/03 08:45:08;;;;;;;2.58;0.50;;;;;;;13.65;74.34;101006.75;5052223;28;20029;-82
2022/07/03 08:47:37;;;;;;;2.45;0.43;;;;;;;13.71;73.52;101003.50;5052908;28;20037;-82
2022/07/03 08:50:03;;;;;;;2.20;0.30;;;;;;;13.74;72.95;101005.84;5052614;28;20033;-81
2022/07/03 08:52:30;;;;;;;3.10;0.52;;;;;;;13.79;72.88;101004.56;5035519;28;20040;-81
2022/07/03 08:54:56;;;;;;;3.08;0.45;;;;;;;13.77;72.35;101002.91;5048085;28;20087;-82
2022/07/03 08:57:24;;;;;;;2.13;0.40;;;;;;;13.80;72.46;101007.09;5054280;28;20024;-82
2022/07/03 08:59:52;;;;;;;2.95;0.70;;;;;;;13.75;72.14;101010.19;5052466;28;20116;-82
2022/07/03 09:02:18;;;;;;;3.95;0.40;;;;;;;13.76;72.25;101019.00;5053986;28;20033;-81
2022/07/03 09:04:44;;;;;;;4.10;0.60;;;;;;;13.74;72.16;101016.47;5052738;28;20045;-81
2022/07/03 09:07:12;;;;;;;2.53;0.40;;;;;;;13.75;72.12;101014.66;5055060;28;20044;-82
2022/07/03 09:09:39;;;;;;;2.17;0.50;;;;;;;13.75;71.28;101015.50;5051358;28;20029;-81
2022/07/03 09:12:06;;;;;;;3.20;0.65;;;;;;;13.75;70.92;101023.47;5053024;28;20043;-81
2022/07/03 09:14:32;;;;;;;3.10;0.50;;;;;;;13.73;70.97;101017.47;5053561;28;20485;-82
2022/07/03 09:16:58;;;;;;;4.10;0.47;;;;;;;13.78;70.89;101025.00;4972526;28;20648;-82
2022/07/03 09:19:47;;;;;;;2.55;0.30;;;;;;;13.82;70.47;101021.06;5035837;28;20065;-81
2022/07/03 09:22:26;;;;;;;1.75;0.45;;;;;;;13.94;70.57;101012.84;5052432;28;20040;-76
2022/07/03 09:24:55;;;;;;;3.50;0.40;;;;;;;14.04;70.05;101016.25;5042058;28;20039;-76
2022/07/03 09:27:22;;;;;;;2.08;0.30;;;;;;;14.17;69.64;101021.19;5061480;28;20032;-81
2022/07/03 09:30:00;;;;;;;2.33;0.80;;;;;;;14.28;68.99;101028.09;5052987;28;20033;-81
2022/07/03 09:32:48;;;;;;;1.85;0.40;;;;;;;14.26;68.34;101016.75;5050857;28;20029;-81
2022/07/03 09:35:22;;;;;;;1.73;0.57;;;;;;;14.28;68.74;101012.13;5044265;28;20089;-81
2022/07/03 09:38:00;;;;;;;2.83;0.53;;;;;;;14.30;68.00;101010.13;5048954;28;20021;-81
2022/07/03 09:40:27;;;;;;;1.80;0.38;;;;;;;14.35;67.26;101021.16;5047837;28;20044;-81
2022/07/03 09:43:07;;;;;;;4.43;0.40;;;;;;;14.41;66.44;101025.03;5067374;28;20045;-81
2022/07/03 09:45:56;;;;;;;2.45;0.40;;;;;;;14.45;65.69;101022.88;5047479;28;20041;-82
2022/07/03 09:48:22;;;;;;;4.43;0.50;;;;;;;14.56;66.01;101021.78;5047069;28;20033;-76
2022/07/03 09:50:47;;;;;;;2.47;0.52;;;;;;;14.56;65.59;101016.44;5039710;28;20083;-76
2022/07/03 09:53:13;;;;;;;3.75;0.30;;;;;;;14.61;65.81;101030.97;5046489;28;20037;-82
2022/07/03 09:55:39;;;;;;;1.48;0.25;;;;;;;14.69;65.85;101024.03;5046067;28;20021;-81
2022/07/03 09:58:05;;;;;;;0.65;0.20;;;;;;;14.72;65.59;101021.88;5046990;28;20102;-81
2022/07/03 10:00:36;;;;;;;2.65;0.40;;;;;;;14.95;65.68;101017.88;5049931;28;20027;-81
2022/07/03 10:03:08;;;;;;;1.63;0.50;;;;;;;15.12;65.13;101019.63;5059991;28;20025;-81
2022/07/03 10:05:38;;;;;;;1.05;0.25;;;;;;;15.25;64.37;101013.84;5059770;28;20036;-81
2022/07/03 10:08:13;;;;;;;3.42;0.50;;;;;;;15.33;63.33;101012.19;5060750;28;20079;-81
2022/07/03 10:10:42;;;;;;;1.60;0.30;;;;;;;15.36;62.75;101020.69;5055135;28;20078;-81
2022/07/03 10:13:08;;;;;;;4.53;0.40;;;;;;;15.46;62.85;101014.41;5032388;28;20036;-81
2022/07/03 10:15:37;;;;;;;1.45;0.20;;;;;;;15.46;62.57;101017.91;5048913;28;20397;-81
2022/07/03 10:18:13;;;;;;;2.20;0.30;;;;;;;15.37;62.22;101019.69;5047868;28;20397;-82
2022/07/03 10:20:42;;;;;;;2.28;0.32;;;;;;;15.22;62.37;101026.63;5062950;28;20032;-81
2022/07/03 10:23:09;;;;;;;0.88;0.30;;;;;;;15.07;62.75;101029.91;5032981;28;20070;-81
2022/07/03 10:25:35;;;;;;;2.78;0.50;;;;;;;15.12;63.16;101032.09;5047641;28;20033;-81
2022/07/03 10:28:02;;;;;;;1.52;0.30;;;;;;;15.28;62.49;101035.81;5049945;28;20040;-81
2022/07/03 10:30:28;;;;;;;4.75;0.40;;;;;;;15.47;62.28;101030.22;5050959;28;20029;-82
2022/07/03 10:32:55;;;;;;;3.72;0.40;;;;;;;15.76;62.08;101041.44;5044768;28;20394;-82
2022/07/03 10:35:23;;;;;;;3.97;0.47;;;;;;;15.93;62.03;101036.97;5024816;28;20115;-82
2022/07/03 10:38:00;;;;;;;1.42;0.35;;;;;;;15.73;61.79;101045.28;5050956;28;20033;-82
2022/07/03 10:46:32;;;;;;;4.05;0.52;;;;;;;14.99;63.80;101056.47;5069455;28;20606;-81
2022/07/03 10:49:03;;;;;;;1.83;0.38;;;;;;;14.89;63.91;101059.28;5035385;28;20512;-81
2022/07/03 10:51:38;;;;;;;3.88;0.50;;;;;;;14.75;64.10;101056.16;5059873;28;20039;-81
2022/07/03 10:54:22;;;;;;;3.60;0.43;;;;;;;14.74;64.39;101057.16;5050728;28;20035;-81
2022/07/03 10:57:02;;;;;;;5.03;0.50;;;;;;;14.78;64.66;101063.00;5070619;28;20032;-81
2022/07/03 10:59:34;;;;;;;2.97;0.45;;;;;;;14.81;64.63;101062.69;5066762;28;20029;-81
2022/07/03 11:02:33;;;;;;;1.75;0.20;;;;;;;14.93;64.64;101059.78;5067891;28;20036;-81
2022/07/03 11:04:59;;;;;;;3.50;0.40;;;;;;;15.06;64.79;101057.53;5063283;28;20044;-81
2022/07/03 11:07:26;;;;;;;3.70;0.45;;;;;;;15.29;64.73;101046.28;5068303;28;20531;-76
2022/07/03 11:10:10;;;;;;;2.38;0.70;;;;;;;15.50;63.84;101061.88;5068045;28;20511;-76
2022/07/03 11:13:11;;;;;;;2.47;0.55;;;;;;;15.62;63.37;101062.38;5068760;28;20058;-76
2022/07/03 11:15:40;;;;;;;2.75;0.32;;;;;;;15.75;62.96;101064.59;5067335;28;20111;-76
2022/07/03 11:18:11;;;;;;;3.95;0.43;;;;;;;15.79;62.80;101067.75;5072092;28;20044;-81
2022/07/03 11:21:16;;;;;;;5.90;0.65;;;;;;;15.63;62.08;101068.56;5056413;28;20035;-81
2022/07/03 11:24:19;;;;;;;2.88;0.45;;;;;;;15.47;62.64;101059.53;5050984;28;20060;-76
2022/07/03 11:26:45;;;;;;;3.85;1.10;;;;;;;15.50;63.14;101063.69;5023956;28;20049;-81
2022/07/03 11:29:28;;;;;;;3.47;0.98;;;;;;;15.65;62.13;101068.41;5055038;28;20047;-81
2022/07/03 11:31:54;;;;;;;5.70;0.30;;;;;;;15.74;62.61;101073.59;5058986;28;20647;-81
2022/07/03 11:34:21;;;;;;;3.78;0.50;;;;;;;15.82;62.09;101062.09;5053668;28;20183;-81
2022/07/03 11:36:47;;;;;;;3.22;0.30;;;;;;;15.83;61.73;101062.94;5054242;28;20029;-81
2022/07/03 11:39:13;;;;;;;0.73;0.20;;;;;;;15.83;61.56;101066.44;5049645;28;20400;-81
2022/07/03 11:41:39;;;;;;;1.02;0.20;;;;;;;15.88;61.49;101057.94;5074088;28;20036;-81
2022/07/03 11:44:07;;;;;;;2.00;0.40;;;;;;;15.95;61.27;101060.78;5069145;28;20054;-81
2022/07/03 11:46:38;;;;;;;2.15;0.30;;;;;;;15.91;62.25;101070.94;5072198;28;20067;-81